Home   Weather   Canada   Toronto   Past weeks
Flag for Canada

Past Weather in Toronto, Ontario, Canada — May 2020

Currently: 36 °F. Partly cloudy. (Weather station: Toronto Pearson International Airport, Canada). See more current weather

May 2020 Weather in Toronto — Graph

°F

High & Low Weather Summary for May 2020

 TemperatureHumidityPressure
High88 °F (May 26, 4:00 pm)100% (May 1, 12:00 am)30.37 "Hg (May 1, 12:00 am)
Low25 °F (May 9, 6:00 am)19% (May 21, 4:00 pm)29.68 "Hg (May 1, 12:00 am)
Average54 °F63%30.01 "Hg
* Reported May 1 12:00 am — May 31 11:00 pm, Toronto. Weather by CustomWeather, © 2021

Note: Actual official high and low records may vary slightly from our data, if they occured in-between our weather recording intervals... More about our weather records

Toronto Weather History for May 1, 2020

Scroll right to see more
 ConditionsComfort  
Time TempWeatherWind HumidityBarometerVisibility
12:00 am
Fri, May 1
50 °FFog.5 mph100%29.68 "Hg6 mi
12:44 am50 °FLight rain. Fog.12 mph100%29.68 "Hg6 mi
1:00 am50 °FLight rain. Fog.13 mph100%29.69 "Hg3 mi
1:27 am50 °FLight rain. Fog.9 mph94%29.68 "Hg2 mi
2:00 am50 °FLight rain. Fog.12 mph100%29.69 "Hg2 mi
2:22 am50 °FLight rain. Fog.8 mph100%29.69 "Hg2 mi
3:00 am50 °FLight rain. Fog.8 mph100%29.70 "Hg3 mi
4:00 am50 °FLight rain. Fog.8 mph94%29.70 "Hg4 mi
4:41 am50 °FLow clouds.9 mph94%29.71 "Hg10 mi
5:00 am50 °FLight rain. Fog.7 mph94%29.72 "Hg6 mi
5:32 am50 °FLight rain. Fog.3 mph94%29.72 "Hg2 mi
6:00 am50 °FLight rain. Fog.7 mph100%29.72 "Hg2 mi
6:19 am50 °FMostly cloudy.7 mph100%29.73 "Hg10 mi
7:00 am48 °FCloudy.7 mph100%29.75 "Hg12 mi
8:00 am48 °FMostly cloudy.8 mph94%29.78 "Hg15 mi
9:00 am46 °FPartly sunny.10 mph93%29.81 "Hg15 mi
10:00 am48 °FPartly sunny.8 mph87%29.83 "Hg15 mi
11:00 am48 °FPartly sunny.7 mph87%29.86 "Hg15 mi
12:00 pm48 °FPartly sunny.10 mph82%29.88 "Hg15 mi
1:00 pm50 °FPartly sunny.8 mph76%29.89 "Hg15 mi
2:00 pm52 °FPartly sunny.9 mph72%29.89 "Hg15 mi
3:00 pm55 °FScattered clouds.9 mph67%29.90 "Hg15 mi
4:00 pm59 °FPassing clouds.12 mph55%29.89 "Hg15 mi
5:00 pm59 °FPassing clouds.12 mph51%29.89 "Hg15 mi
6:00 pm61 °FPassing clouds.9 mph45%29.89 "Hg15 mi
7:00 pm59 °FPassing clouds.12 mph42%29.92 "Hg15 mi
8:00 pm57 °FPassing clouds.15 mph48%29.94 "Hg15 mi
9:00 pm55 °FPassing clouds.6 mph47%29.97 "Hg15 mi
10:00 pm54 °FClear.7 mph51%29.98 "Hg15 mi
11:00 pm52 °FClear.2 mph54%29.99 "Hg15 mi
Weather by CustomWeather, © 2021

See weather overview